sensor_id;sensor_type;location;lat;lon;timestamp;P1;durP1;ratioP1;P2;durP2;ratioP2
36061;SDS011;22123;52.412;20.970;2022-09-01T00:00:38;1.92;;;0.95;;
36061;SDS011;22123;52.412;20.970;2022-09-01T00:03:06;1.95;;;0.60;;
36061;SDS011;22123;52.412;20.970;2022-09-01T00:05:36;2.90;;;0.80;;
36061;SDS011;22123;52.412;20.970;2022-09-01T00:08:02;2.13;;;0.95;;
36061;SDS011;22123;52.412;20.970;2022-09-01T00:10:29;3.28;;;1.00;;
36061;SDS011;22123;52.412;20.970;2022-09-01T00:12:55;4.03;;;0.95;;
36061;SDS011;22123;52.412;20.970;2022-09-01T00:15:20;2.28;;;0.75;;
36061;SDS011;22123;52.412;20.970;2022-09-01T00:17:46;3.63;;;1.10;;
36061;SDS011;22123;52.412;20.970;2022-09-01T00:20:11;4.57;;;1.00;;
36061;SDS011;22123;52.412;20.970;2022-09-01T00:22:38;4.20;;;0.95;;
36061;SDS011;22123;52.412;20.970;2022-09-01T00:25:04;2.55;;;1.10;;
36061;SDS011;22123;52.412;20.970;2022-09-01T00:27:32;1.05;;;0.88;;
36061;SDS011;22123;52.412;20.970;2022-09-01T00:29:58;3.38;;;0.90;;
36061;SDS011;22123;52.412;20.970;2022-09-01T00:32:24;5.88;;;1.15;;
36061;SDS011;22123;52.412;20.970;2022-09-01T00:34:50;3.72;;;0.85;;
36061;SDS011;22123;52.412;20.970;2022-09-01T00:37:16;2.30;;;0.80;;
36061;SDS011;22123;52.412;20.970;2022-09-01T00:39:41;4.10;;;1.05;;
36061;SDS011;22123;52.412;20.970;2022-09-01T00:42:06;3.00;;;0.85;;
36061;SDS011;22123;52.412;20.970;2022-09-01T00:44:32;5.60;;;0.60;;
36061;SDS011;22123;52.412;20.970;2022-09-01T00:47:00;4.28;;;1.10;;
36061;SDS011;22123;52.412;20.970;2022-09-01T00:49:43;1.80;;;0.93;;
36061;SDS011;22123;52.412;20.970;2022-09-01T00:52:14;2.08;;;0.70;;
36061;SDS011;22123;52.412;20.970;2022-09-01T00:54:50;2.10;;;0.95;;
36061;SDS011;22123;52.412;20.970;2022-09-01T00:57:22;2.60;;;0.88;;
36061;SDS011;22123;52.412;20.970;2022-09-01T00:59:49;2.28;;;0.70;;
36061;SDS011;22123;52.412;20.970;2022-09-01T01:02:32;1.27;;;0.93;;
36061;SDS011;22123;52.412;20.970;2022-09-01T01:04:58;1.52;;;0.68;;
36061;SDS011;22123;52.412;20.970;2022-09-01T01:07:24;6.63;;;1.75;;
36061;SDS011;22123;52.412;20.970;2022-09-01T01:09:51;4.80;;;0.80;;
36061;SDS011;22123;52.412;20.970;2022-09-01T01:12:17;1.80;;;0.85;;
36061;SDS011;22123;52.412;20.970;2022-09-01T01:14:44;4.85;;;0.60;;
36061;SDS011;22123;52.412;20.970;2022-09-01T01:17:14;2.63;;;0.80;;
36061;SDS011;22123;52.412;20.970;2022-09-01T01:19:45;1.30;;;0.75;;
36061;SDS011;22123;52.412;20.970;2022-09-01T04:54:27;3.43;;;1.87;;
36061;SDS011;22123;52.412;20.970;2022-09-01T06:03:18;5.47;;;1.90;;
36061;SDS011;22123;52.412;20.970;2022-09-01T06:05:47;5.17;;;1.70;;
36061;SDS011;22123;52.412;20.970;2022-09-01T06:08:23;5.63;;;1.90;;
36061;SDS011;22123;52.412;20.970;2022-09-01T06:10:49;5.38;;;1.95;;
36061;SDS011;22123;52.412;20.970;2022-09-01T06:13:16;4.63;;;1.42;;
36061;SDS011;22123;52.412;20.970;2022-09-01T07:37:38;1.45;;;0.43;;
36061;SDS011;22123;52.412;20.970;2022-09-01T07:40:05;2.70;;;0.50;;
36061;SDS011;22123;52.412;20.970;2022-09-01T07:42:33;1.40;;;0.50;;
36061;SDS011;22123;52.412;20.970;2022-09-01T07:45:00;2.03;;;0.43;;
36061;SDS011;22123;52.412;20.970;2022-09-01T07:47:33;2.13;;;0.50;;
36061;SDS011;22123;52.412;20.970;2022-09-01T07:50:06;1.77;;;0.55;;
36061;SDS011;22123;52.412;20.970;2022-09-01T07:52:37;2.35;;;0.40;;
36061;SDS011;22123;52.412;20.970;2022-09-01T07:55:28;3.13;;;0.40;;
36061;SDS011;22123;52.412;20.970;2022-09-01T07:57:55;2.60;;;0.43;;
36061;SDS011;22123;52.412;20.970;2022-09-01T08:00:22;2.55;;;0.80;;
36061;SDS011;22123;52.412;20.970;2022-09-01T08:02:48;1.60;;;0.53;;
36061;SDS011;22123;52.412;20.970;2022-09-01T08:05:16;2.10;;;0.43;;
36061;SDS011;22123;52.412;20.970;2022-09-01T08:07:46;3.75;;;0.60;;
36061;SDS011;22123;52.412;20.970;2022-09-01T08:10:15;2.42;;;0.30;;
36061;SDS011;22123;52.412;20.970;2022-09-01T08:12:41;0.80;;;0.40;;
36061;SDS011;22123;52.412;20.970;2022-09-01T08:15:08;1.58;;;0.30;;
36061;SDS011;22123;52.412;20.970;2022-09-01T08:17:36;1.00;;;0.40;;
36061;SDS011;22123;52.412;20.970;2022-09-01T08:20:03;1.88;;;0.45;;
36061;SDS011;22123;52.412;20.970;2022-09-01T08:22:34;5.43;;;0.63;;
36061;SDS011;22123;52.412;20.970;2022-09-01T08:25:05;2.50;;;0.60;;
36061;SDS011;22123;52.412;20.970;2022-09-01T08:27:33;0.90;;;0.30;;
36061;SDS011;22123;52.412;20.970;2022-09-01T08:30:06;1.25;;;0.30;;
36061;SDS011;22123;52.412;20.970;2022-09-01T08:32:36;2.13;;;0.50;;
36061;SDS011;22123;52.412;20.970;2022-09-01T08:35:05;2.10;;;0.32;;
36061;SDS011;22123;52.412;20.970;2022-09-01T08:37:31;1.75;;;0.60;;
36061;SDS011;22123;52.412;20.970;2022-09-01T08:39:56;2.90;;;0.40;;
36061;SDS011;22123;52.412;20.970;2022-09-01T08:42:41;0.95;;;0.47;;
36061;SDS011;22123;52.412;20.970;2022-09-01T08:51:19;5.25;;;0.50;;
36061;SDS011;22123;52.412;20.970;2022-09-01T08:53:56;1.70;;;0.30;;
36061;SDS011;22123;52.412;20.970;2022-09-01T08:56:38;1.15;;;0.35;;
36061;SDS011;22123;52.412;20.970;2022-09-01T08:59:06;2.90;;;0.50;;
36061;SDS011;22123;52.412;20.970;2022-09-01T09:09:49;2.65;;;0.60;;
36061;SDS011;22123;52.412;20.970;2022-09-01T09:15:16;1.75;;;0.50;;
36061;SDS011;22123;52.412;20.970;2022-09-01T09:17:47;0.73;;;0.20;;
36061;SDS011;22123;52.412;20.970;2022-09-01T09:20:24;1.95;;;0.20;;
36061;SDS011;22123;52.412;20.970;2022-09-01T09:22:51;4.25;;;0.20;;
36061;SDS011;22123;52.412;20.970;2022-09-01T09:25:18;2.63;;;0.40;;
36061;SDS011;22123;52.412;20.970;2022-09-01T09:27:47;0.85;;;0.50;;
36061;SDS011;22123;52.412;20.970;2022-09-01T09:30:20;1.83;;;0.30;;
36061;SDS011;22123;52.412;20.970;2022-09-01T09:32:56;1.23;;;0.57;;
36061;SDS011;22123;52.412;20.970;2022-09-01T09:35:41;0.85;;;0.35;;
36061;SDS011;22123;52.412;20.970;2022-09-01T09:43:37;0.57;;;0.30;;
36061;SDS011;22123;52.412;20.970;2022-09-01T09:51:57;0.30;;;0.20;;
36061;SDS011;22123;52.412;20.970;2022-09-01T09:54:56;1.58;;;0.82;;
36061;SDS011;22123;52.412;20.970;2022-09-01T09:57:25;2.38;;;0.30;;
36061;SDS011;22123;52.412;20.970;2022-09-01T10:00:06;3.55;;;0.30;;
36061;SDS011;22123;52.412;20.970;2022-09-01T10:02:42;0.63;;;0.17;;
36061;SDS011;22123;52.412;20.970;2022-09-01T10:08:13;2.15;;;0.10;;
36061;SDS011;22123;52.412;20.970;2022-09-01T10:11:02;0.85;;;0.20;;
36061;SDS011;22123;52.412;20.970;2022-09-01T10:13:30;1.00;;;0.20;;
36061;SDS011;22123;52.412;20.970;2022-09-01T10:16:02;0.45;;;0.20;;
36061;SDS011;22123;52.412;20.970;2022-09-01T10:18:36;4.03;;;0.20;;
36061;SDS011;22123;52.412;20.970;2022-09-01T10:23:48;0.70;;;0.25;;
36061;SDS011;22123;52.412;20.970;2022-09-01T10:26:14;0.73;;;0.35;;
36061;SDS011;22123;52.412;20.970;2022-09-01T10:31:19;3.47;;;0.22;;
36061;SDS011;22123;52.412;20.970;2022-09-01T10:33:45;2.17;;;0.20;;
36061;SDS011;22123;52.412;20.970;2022-09-01T10:36:12;0.75;;;0.25;;
36061;SDS011;22123;52.412;20.970;2022-09-01T10:38:40;1.17;;;0.20;;
36061;SDS011;22123;52.412;20.970;2022-09-01T10:41:07;0.95;;;0.22;;
36061;SDS011;22123;52.412;20.970;2022-09-01T10:43:40;0.63;;;0.20;;
36061;SDS011;22123;52.412;20.970;2022-09-01T10:46:07;0.28;;;0.13;;
36061;SDS011;22123;52.412;20.970;2022-09-01T10:48:36;5.80;;;0.40;;
36061;SDS011;22123;52.412;20.970;2022-09-01T10:53:44;0.60;;;0.20;;
36061;SDS011;22123;52.412;20.970;2022-09-01T10:56:25;2.67;;;0.30;;
36061;SDS011;22123;52.412;20.970;2022-09-01T11:02:38;3.78;;;0.30;;
36061;SDS011;22123;52.412;20.970;2022-09-01T11:07:32;2.88;;;0.25;;
36061;SDS011;22123;52.412;20.970;2022-09-01T11:25:52;0.55;;;0.30;;
36061;SDS011;22123;52.412;20.970;2022-09-01T11:41:59;1.00;;;0.28;;
36061;SDS011;22123;52.412;20.970;2022-09-01T11:47:21;2.35;;;0.28;;
36061;SDS011;22123;52.412;20.970;2022-09-01T11:49:58;0.75;;;0.30;;
36061;SDS011;22123;52.412;20.970;2022-09-01T11:52:30;0.55;;;0.30;;
36061;SDS011;22123;52.412;20.970;2022-09-01T11:55:00;0.55;;;0.20;;
36061;SDS011;22123;52.412;20.970;2022-09-01T11:57:30;0.75;;;0.28;;
36061;SDS011;22123;52.412;20.970;2022-09-01T12:00:00;4.32;;;0.30;;
36061;SDS011;22123;52.412;20.970;2022-09-01T12:02:31;1.27;;;0.30;;
36061;SDS011;22123;52.412;20.970;2022-09-01T12:05:03;3.78;;;0.22;;
36061;SDS011;22123;52.412;20.970;2022-09-01T12:07:48;1.65;;;0.30;;
36061;SDS011;22123;52.412;20.970;2022-09-01T12:15:33;2.28;;;0.10;;
36061;SDS011;22123;52.412;20.970;2022-09-01T12:18:09;1.50;;;0.35;;
36061;SDS011;22123;52.412;20.970;2022-09-01T12:20:38;4.03;;;0.30;;
36061;SDS011;22123;52.412;20.970;2022-09-01T12:23:48;0.88;;;0.25;;
36061;SDS011;22123;52.412;20.970;2022-09-01T12:26:32;0.20;;;0.10;;
36061;SDS011;22123;52.412;20.970;2022-09-01T12:28:56;0.60;;;0.30;;
36061;SDS011;22123;52.412;20.970;2022-09-01T12:31:24;0.40;;;0.30;;
36061;SDS011;22123;52.412;20.970;2022-09-01T12:33:54;1.55;;;0.30;;
36061;SDS011;22123;52.412;20.970;2022-09-01T12:36:27;1.15;;;0.40;;
36061;SDS011;22123;52.412;20.970;2022-09-01T12:39:18;0.65;;;0.40;;
36061;SDS011;22123;52.412;20.970;2022-09-01T12:45:06;2.38;;;0.30;;
36061;SDS011;22123;52.412;20.970;2022-09-01T12:50:04;1.33;;;0.38;;
36061;SDS011;22123;52.412;20.970;2022-09-01T12:52:33;5.40;;;0.32;;
36061;SDS011;22123;52.412;20.970;2022-09-01T12:57:28;1.10;;;0.30;;
36061;SDS011;22123;52.412;20.970;2022-09-01T13:08:07;1.35;;;0.40;;
36061;SDS011;22123;52.412;20.970;2022-09-01T13:10:41;0.30;;;0.20;;
36061;SDS011;22123;52.412;20.970;2022-09-01T13:13:10;3.28;;;0.22;;
36061;SDS011;22123;52.412;20.970;2022-09-01T13:15:37;1.55;;;0.32;;
36061;SDS011;22123;52.412;20.970;2022-09-01T13:18:09;0.93;;;0.20;;
36061;SDS011;22123;52.412;20.970;2022-09-01T13:20:34;1.95;;;0.38;;
36061;SDS011;22123;52.412;20.970;2022-09-01T13:23:00;0.75;;;0.30;;
36061;SDS011;22123;52.412;20.970;2022-09-01T13:25:26;2.80;;;0.30;;
36061;SDS011;22123;52.412;20.970;2022-09-01T13:27:52;5.38;;;0.60;;
36061;SDS011;22123;52.412;20.970;2022-09-01T13:30:21;0.60;;;0.25;;
36061;SDS011;22123;52.412;20.970;2022-09-01T13:32:48;0.93;;;0.20;;
36061;SDS011;22123;52.412;20.970;2022-09-01T13:35:16;0.75;;;0.40;;
36061;SDS011;22123;52.412;20.970;2022-09-01T13:37:44;0.32;;;0.17;;
36061;SDS011;22123;52.412;20.970;2022-09-01T13:40:10;4.43;;;0.40;;
36061;SDS011;22123;52.412;20.970;2022-09-01T13:42:42;1.17;;;0.40;;
36061;SDS011;22123;52.412;20.970;2022-09-01T13:45:12;2.10;;;0.30;;
36061;SDS011;22123;52.412;20.970;2022-09-01T13:47:42;1.58;;;0.20;;
36061;SDS011;22123;52.412;20.970;2022-09-01T13:50:10;1.85;;;0.38;;
36061;SDS011;22123;52.412;20.970;2022-09-01T13:52:39;0.20;;;0.20;;
36061;SDS011;22123;52.412;20.970;2022-09-01T13:55:11;1.15;;;0.40;;
36061;SDS011;22123;52.412;20.970;2022-09-01T13:57:39;0.85;;;0.30;;
36061;SDS011;22123;52.412;20.970;2022-09-01T14:00:21;1.17;;;0.30;;
36061;SDS011;22123;52.412;20.970;2022-09-01T14:02:52;0.70;;;0.20;;
36061;SDS011;22123;52.412;20.970;2022-09-01T14:05:23;0.57;;;0.17;;
36061;SDS011;22123;52.412;20.970;2022-09-01T14:07:56;0.52;;;0.22;;
36061;SDS011;22123;52.412;20.970;2022-09-01T14:10:23;0.73;;;0.20;;
36061;SDS011;22123;52.412;20.970;2022-09-01T14:12:51;0.47;;;0.20;;
36061;SDS011;22123;52.412;20.970;2022-09-01T14:15:17;1.60;;;0.30;;
36061;SDS011;22123;52.412;20.970;2022-09-01T14:17:45;3.22;;;0.40;;
36061;SDS011;22123;52.412;20.970;2022-09-01T14:20:16;2.25;;;0.30;;
36061;SDS011;22123;52.412;20.970;2022-09-01T14:22:46;0.60;;;0.17;;
36061;SDS011;22123;52.412;20.970;2022-09-01T14:25:12;4.40;;;0.35;;
36061;SDS011;22123;52.412;20.970;2022-09-01T14:27:41;2.83;;;0.20;;
36061;SDS011;22123;52.412;20.970;2022-09-01T14:30:13;0.47;;;0.32;;
36061;SDS011;22123;52.412;20.970;2022-09-01T14:32:59;34.75;;;6.25;;
36061;SDS011;22123;52.412;20.970;2022-09-01T14:35:27;2.47;;;0.70;;
36061;SDS011;22123;52.412;20.970;2022-09-01T14:38:01;5.22;;;1.17;;
36061;SDS011;22123;52.412;20.970;2022-09-01T14:40:29;3.22;;;0.32;;
36061;SDS011;22123;52.412;20.970;2022-09-01T14:42:54;4.57;;;0.40;;
36061;SDS011;22123;52.412;20.970;2022-09-01T14:45:21;3.10;;;0.57;;
36061;SDS011;22123;52.412;20.970;2022-09-01T14:47:50;1.17;;;0.30;;
36061;SDS011;22123;52.412;20.970;2022-09-01T14:50:18;1.75;;;0.73;;
36061;SDS011;22123;52.412;20.970;2022-09-01T14:52:47;3.30;;;0.20;;
36061;SDS011;22123;52.412;20.970;2022-09-01T14:55:13;1.80;;;0.30;;
36061;SDS011;22123;52.412;20.970;2022-09-01T14:57:42;0.65;;;0.20;;
36061;SDS011;22123;52.412;20.970;2022-09-01T15:00:09;0.40;;;0.20;;
36061;SDS011;22123;52.412;20.970;2022-09-01T15:05:05;3.13;;;0.30;;
36061;SDS011;22123;52.412;20.970;2022-09-01T15:07:32;0.52;;;0.30;;
36061;SDS011;22123;52.412;20.970;2022-09-01T15:09:58;3.60;;;0.22;;
36061;SDS011;22123;52.412;20.970;2022-09-01T15:12:24;3.70;;;0.50;;
36061;SDS011;22123;52.412;20.970;2022-09-01T15:14:54;3.10;;;0.30;;
36061;SDS011;22123;52.412;20.970;2022-09-01T15:17:21;1.67;;;0.30;;
36061;SDS011;22123;52.412;20.970;2022-09-01T15:19:47;2.88;;;0.35;;
36061;SDS011;22123;52.412;20.970;2022-09-01T15:22:14;0.40;;;0.17;;
36061;SDS011;22123;52.412;20.970;2022-09-01T15:24:40;5.00;;;0.40;;
36061;SDS011;22123;52.412;20.970;2022-09-01T15:27:07;1.60;;;0.38;;
36061;SDS011;22123;52.412;20.970;2022-09-01T15:29:38;0.38;;;0.20;;
36061;SDS011;22123;52.412;20.970;2022-09-01T15:32:23;3.75;;;0.30;;
36061;SDS011;22123;52.412;20.970;2022-09-01T15:34:50;1.27;;;0.35;;
36061;SDS011;22123;52.412;20.970;2022-09-01T15:37:15;1.98;;;0.20;;
36061;SDS011;22123;52.412;20.970;2022-09-01T15:39:41;1.42;;;0.38;;
36061;SDS011;22123;52.412;20.970;2022-09-01T15:42:06;0.73;;;0.30;;
36061;SDS011;22123;52.412;20.970;2022-09-01T15:44:32;1.00;;;0.30;;
36061;SDS011;22123;52.412;20.970;2022-09-01T15:46:58;1.35;;;0.50;;
36061;SDS011;22123;52.412;20.970;2022-09-01T15:49:24;1.25;;;0.32;;
36061;SDS011;22123;52.412;20.970;2022-09-01T15:51:49;3.15;;;0.40;;
36061;SDS011;22123;52.412;20.970;2022-09-01T15:54:21;0.47;;;0.30;;
36061;SDS011;22123;52.412;20.970;2022-09-01T15:56:51;1.55;;;0.50;;
36061;SDS011;22123;52.412;20.970;2022-09-01T15:59:19;2.25;;;0.38;;
36061;SDS011;22123;52.412;20.970;2022-09-01T16:01:45;1.77;;;0.40;;
36061;SDS011;22123;52.412;20.970;2022-09-01T16:04:12;1.00;;;0.43;;
36061;SDS011;22123;52.412;20.970;2022-09-01T16:06:40;1.25;;;0.28;;
36061;SDS011;22123;52.412;20.970;2022-09-01T16:09:06;0.98;;;0.40;;
36061;SDS011;22123;52.412;20.970;2022-09-01T16:11:35;0.55;;;0.30;;
36061;SDS011;22123;52.412;20.970;2022-09-01T16:14:03;0.73;;;0.55;;
36061;SDS011;22123;52.412;20.970;2022-09-01T16:24:04;2.65;;;0.88;;
36061;SDS011;22123;52.412;20.970;2022-09-01T16:26:35;0.25;;;0.25;;
36061;SDS011;22123;52.412;20.970;2022-09-01T16:29:02;0.55;;;0.30;;
36061;SDS011;22123;52.412;20.970;2022-09-01T16:31:32;0.77;;;0.30;;
36061;SDS011;22123;52.412;20.970;2022-09-01T16:33:59;1.27;;;0.47;;
36061;SDS011;22123;52.412;20.970;2022-09-01T16:36:58;0.50;;;0.30;;
36061;SDS011;22123;52.412;20.970;2022-09-01T16:39:45;1.42;;;0.50;;
36061;SDS011;22123;52.412;20.970;2022-09-01T16:47:54;0.98;;;0.50;;
36061;SDS011;22123;52.412;20.970;2022-09-01T16:58:52;3.55;;;1.10;;
36061;SDS011;22123;52.412;20.970;2022-09-01T17:01:47;2.85;;;1.20;;
36061;SDS011;22123;52.412;20.970;2022-09-01T19:59:58;7.63;;;2.63;;
36061;SDS011;22123;52.412;20.970;2022-09-01T20:02:50;11.80;;;3.38;;
36061;SDS011;22123;52.412;20.970;2022-09-01T20:08:00;8.98;;;2.72;;
36061;SDS011;22123;52.412;20.970;2022-09-01T20:11:00;11.25;;;2.70;;
36061;SDS011;22123;52.412;20.970;2022-09-01T20:18:51;8.23;;;2.33;;
36061;SDS011;22123;52.412;20.970;2022-09-01T20:21:17;6.15;;;2.22;;
36061;SDS011;22123;52.412;20.970;2022-09-01T20:26:42;6.35;;;2.45;;
36061;SDS011;22123;52.412;20.970;2022-09-01T20:29:14;10.32;;;2.75;;
36061;SDS011;22123;52.412;20.970;2022-09-01T20:31:49;7.68;;;2.60;;
36061;SDS011;22123;52.412;20.970;2022-09-01T20:39:57;9.25;;;2.55;;
36061;SDS011;22123;52.412;20.970;2022-09-01T20:45:21;10.05;;;2.55;;
36061;SDS011;22123;52.412;20.970;2022-09-01T20:47:52;7.18;;;2.72;;
36061;SDS011;22123;52.412;20.970;2022-09-01T20:50:24;6.93;;;2.80;;
36061;SDS011;22123;52.412;20.970;2022-09-01T20:58:49;10.50;;;2.95;;
36061;SDS011;22123;52.412;20.970;2022-09-01T21:06:49;5.28;;;2.45;;
36061;SDS011;22123;52.412;20.970;2022-09-01T21:09:27;5.20;;;2.72;;
36061;SDS011;22123;52.412;20.970;2022-09-01T21:12:24;6.20;;;2.97;;
36061;SDS011;22123;52.412;20.970;2022-09-01T21:17:40;8.07;;;2.58;;
36061;SDS011;22123;52.412;20.970;2022-09-01T21:22:56;11.38;;;2.90;;
36061;SDS011;22123;52.412;20.970;2022-09-01T21:25:22;9.20;;;3.72;;
36061;SDS011;22123;52.412;20.970;2022-09-01T21:27:48;9.75;;;3.20;;
36061;SDS011;22123;52.412;20.970;2022-09-01T21:30:19;9.32;;;3.30;;
36061;SDS011;22123;52.412;20.970;2022-09-01T21:32:46;8.93;;;3.45;;
36061;SDS011;22123;52.412;20.970;2022-09-01T21:35:14;6.57;;;3.05;;
36061;SDS011;22123;52.412;20.970;2022-09-01T21:37:41;9.55;;;3.00;;
36061;SDS011;22123;52.412;20.970;2022-09-01T21:40:06;6.03;;;2.63;;
36061;SDS011;22123;52.412;20.970;2022-09-01T21:42:34;10.90;;;3.10;;
36061;SDS011;22123;52.412;20.970;2022-09-01T21:45:07;14.18;;;2.90;;
36061;SDS011;22123;52.412;20.970;2022-09-01T21:47:37;7.50;;;3.08;;
36061;SDS011;22123;52.412;20.970;2022-09-01T21:50:03;10.20;;;3.10;;
36061;SDS011;22123;52.412;20.970;2022-09-01T21:52:29;12.90;;;3.30;;
36061;SDS011;22123;52.412;20.970;2022-09-01T21:54:55;7.85;;;3.15;;
36061;SDS011;22123;52.412;20.970;2022-09-01T21:57:20;12.07;;;3.20;;
36061;SDS011;22123;52.412;20.970;2022-09-01T21:59:47;9.98;;;3.40;;
36061;SDS011;22123;52.412;20.970;2022-09-01T22:02:13;9.20;;;3.40;;
36061;SDS011;22123;52.412;20.970;2022-09-01T22:04:39;11.70;;;4.18;;
36061;SDS011;22123;52.412;20.970;2022-09-01T22:07:05;9.57;;;3.50;;
36061;SDS011;22123;52.412;20.970;2022-09-01T22:09:39;10.55;;;3.20;;
36061;SDS011;22123;52.412;20.970;2022-09-01T22:12:05;12.00;;;4.05;;
36061;SDS011;22123;52.412;20.970;2022-09-01T22:14:34;9.50;;;3.38;;
36061;SDS011;22123;52.412;20.970;2022-09-01T22:17:00;9.50;;;3.72;;
36061;SDS011;22123;52.412;20.970;2022-09-01T22:19:25;10.52;;;3.85;;
36061;SDS011;22123;52.412;20.970;2022-09-01T22:21:51;12.27;;;3.75;;
36061;SDS011;22123;52.412;20.970;2022-09-01T22:24:17;13.52;;;3.78;;
36061;SDS011;22123;52.412;20.970;2022-09-01T22:26:43;10.52;;;3.90;;
36061;SDS011;22123;52.412;20.970;2022-09-01T22:29:11;7.05;;;3.50;;
36061;SDS011;22123;52.412;20.970;2022-09-01T22:31:38;12.55;;;3.20;;
36061;SDS011;22123;52.412;20.970;2022-09-01T22:34:04;10.98;;;3.80;;
36061;SDS011;22123;52.412;20.970;2022-09-01T22:36:32;10.10;;;3.60;;
36061;SDS011;22123;52.412;20.970;2022-09-01T22:39:00;12.15;;;2.80;;
36061;SDS011;22123;52.412;20.970;2022-09-01T22:41:27;12.40;;;3.30;;
36061;SDS011;22123;52.412;20.970;2022-09-01T22:43:54;10.05;;;3.50;;
36061;SDS011;22123;52.412;20.970;2022-09-01T22:46:21;8.68;;;3.10;;
36061;SDS011;22123;52.412;20.970;2022-09-01T22:48:48;13.32;;;3.55;;
36061;SDS011;22123;52.412;20.970;2022-09-01T22:51:13;13.43;;;3.95;;
36061;SDS011;22123;52.412;20.970;2022-09-01T22:53:41;10.55;;;3.33;;
36061;SDS011;22123;52.412;20.970;2022-09-01T22:56:12;7.97;;;3.05;;
36061;SDS011;22123;52.412;20.970;2022-09-01T22:58:40;8.10;;;3.72;;
36061;SDS011;22123;52.412;20.970;2022-09-01T23:01:08;10.90;;;3.70;;
36061;SDS011;22123;52.412;20.970;2022-09-01T23:03:36;6.32;;;3.10;;
36061;SDS011;22123;52.412;20.970;2022-09-01T23:06:09;12.27;;;3.60;;
36061;SDS011;22123;52.412;20.970;2022-09-01T23:08:36;12.27;;;3.13;;
36061;SDS011;22123;52.412;20.970;2022-09-01T23:11:05;11.60;;;2.92;;
36061;SDS011;22123;52.412;20.970;2022-09-01T23:13:31;7.50;;;2.97;;
36061;SDS011;22123;52.412;20.970;2022-09-01T23:15:58;8.65;;;3.45;;
36061;SDS011;22123;52.412;20.970;2022-09-01T23:18:24;7.93;;;2.90;;
36061;SDS011;22123;52.412;20.970;2022-09-01T23:20:53;11.70;;;2.80;;
36061;SDS011;22123;52.412;20.970;2022-09-01T23:23:18;6.78;;;2.80;;
36061;SDS011;22123;52.412;20.970;2022-09-01T23:25:45;8.68;;;3.10;;
36061;SDS011;22123;52.412;20.970;2022-09-01T23:28:14;12.40;;;3.53;;
36061;SDS011;22123;52.412;20.970;2022-09-01T23:30:44;7.80;;;3.00;;
36061;SDS011;22123;52.412;20.970;2022-09-01T23:33:14;7.28;;;2.90;;
36061;SDS011;22123;52.412;20.970;2022-09-01T23:35:45;13.38;;;2.97;;
36061;SDS011;22123;52.412;20.970;2022-09-01T23:38:14;16.33;;;3.83;;
36061;SDS011;22123;52.412;20.970;2022-09-01T23:40:46;7.38;;;2.70;;
36061;SDS011;22123;52.412;20.970;2022-09-01T23:43:14;8.68;;;3.17;;
36061;SDS011;22123;52.412;20.970;2022-09-01T23:45:43;10.85;;;2.88;;
36061;SDS011;22123;52.412;20.970;2022-09-01T23:48:11;10.48;;;3.97;;
36061;SDS011;22123;52.412;20.970;2022-09-01T23:50:41;14.55;;;3.28;;
36061;SDS011;22123;52.412;20.970;2022-09-01T23:53:08;10.52;;;3.35;;
36061;SDS011;22123;52.412;20.970;2022-09-01T23:55:44;8.13;;;2.80;;
36061;SDS011;22123;52.412;20.970;2022-09-01T23:58:12;11.00;;;2.92;;
